createdAt,value
2023-02-28T00:00:32.246Z,-0.10
2023-02-28T00:02:37.445Z,-0.10
2023-02-28T00:04:42.884Z,-0.10
2023-02-28T00:06:47.772Z,0.00
2023-02-28T00:08:53.222Z,0.00
2023-02-28T00:10:58.097Z,-0.10
2023-02-28T00:13:06.391Z,0.00
2023-02-28T00:15:15.452Z,-0.10
2023-02-28T00:17:23.353Z,-0.10
2023-02-28T00:19:28.798Z,0.00
2023-02-28T00:21:33.701Z,0.00
2023-02-28T00:23:40.159Z,0.00
2023-02-28T00:25:45.029Z,0.00
2023-02-28T00:27:50.332Z,0.00
2023-02-28T00:29:55.490Z,-0.10
2023-02-28T00:32:00.404Z,-0.10
2023-02-28T00:34:08.412Z,0.00
2023-02-28T00:36:15.303Z,0.00
2023-02-28T00:38:20.766Z,0.00
2023-02-28T00:40:25.736Z,0.00
2023-02-28T00:42:31.750Z,-0.10
2023-02-28T00:44:37.652Z,-0.10
2023-02-28T00:46:42.551Z,-0.10
2023-02-28T00:48:48.054Z,-0.20
2023-02-28T00:50:55.878Z,-0.20
2023-02-28T00:53:01.010Z,-0.30
2023-02-28T00:55:06.506Z,-0.30
2023-02-28T00:57:11.945Z,-0.30
2023-02-28T00:59:17.561Z,-0.30
2023-02-28T01:01:23.268Z,-0.40
2023-02-28T01:03:29.105Z,-0.40
2023-02-28T01:05:35.306Z,-0.40
2023-02-28T01:07:43.036Z,-0.40
2023-02-28T01:09:48.469Z,-0.40
2023-02-28T01:11:53.343Z,-0.40
2023-02-28T01:13:58.521Z,-0.40
2023-02-28T01:16:03.492Z,-0.40
2023-02-28T01:18:09.368Z,-0.50
2023-02-28T01:20:15.661Z,-0.40
2023-02-28T01:22:20.872Z,-0.40
2023-02-28T01:24:28.886Z,-0.40
2023-02-28T01:26:34.476Z,-0.40
2023-02-28T01:28:40.748Z,-0.50
2023-02-28T01:30:45.857Z,-0.50
2023-02-28T01:32:52.876Z,-0.50
2023-02-28T01:34:58.639Z,-0.60
2023-02-28T01:37:04.502Z,-0.60
2023-02-28T01:39:10.017Z,-0.60
2023-02-28T01:41:21.481Z,-0.70
2023-02-28T01:43:29.777Z,-0.60
2023-02-28T01:45:37.974Z,-0.70
2023-02-28T01:47:46.683Z,-0.70
2023-02-28T01:49:52.665Z,-0.70
2023-02-28T01:52:00.507Z,-0.70
2023-02-28T01:54:14.875Z,-0.70
2023-02-28T01:56:31.140Z,-0.70
2023-02-28T01:58:36.976Z,-0.70
2023-02-28T02:00:43.681Z,-0.70
2023-02-28T02:02:54.156Z,-0.80
2023-02-28T02:05:03.677Z,-0.70
2023-02-28T02:07:08.764Z,-0.80
2023-02-28T02:09:13.937Z,-0.80
2023-02-28T02:11:25.858Z,-0.80
2023-02-28T02:14:09.029Z,-0.90
2023-02-28T02:16:32.438Z,-1.00
2023-02-28T02:18:44.812Z,-1.00
2023-02-28T02:21:20.705Z,-1.10
2023-02-28T02:24:09.489Z,-1.10
2023-02-28T02:26:50.424Z,-1.20
2023-02-28T02:29:20.108Z,-1.30
2023-02-28T02:32:05.909Z,-1.20
2023-02-28T02:34:44.829Z,-1.20
2023-02-28T02:36:53.757Z,-1.30
2023-02-28T02:39:09.703Z,-1.20
2023-02-28T02:41:21.864Z,-1.20
2023-02-28T02:43:32.388Z,-1.30
2023-02-28T02:45:43.824Z,-1.20
2023-02-28T02:47:49.799Z,-1.20
2023-02-28T02:50:02.176Z,-1.30
2023-02-28T02:52:15.693Z,-1.30
2023-02-28T02:54:29.779Z,-1.20
2023-02-28T02:56:37.612Z,-1.20
2023-02-28T02:58:47.110Z,-1.20
2023-02-28T03:01:00.253Z,-1.20
2023-02-28T03:03:06.456Z,-1.20
2023-02-28T03:05:23.269Z,-1.10
2023-02-28T03:07:29.998Z,-1.10
2023-02-28T03:09:39.559Z,-1.00
2023-02-28T03:11:46.334Z,-1.00
2023-02-28T03:14:28.741Z,-1.00
2023-02-28T03:16:43.787Z,-1.00
2023-02-28T03:19:06.252Z,-0.90
2023-02-28T03:21:24.100Z,-0.90
2023-02-28T03:23:42.434Z,-0.90
2023-02-28T03:26:00.496Z,-0.90
2023-02-28T03:28:13.481Z,-0.80
2023-02-28T03:30:27.970Z,-0.80
2023-02-28T03:32:39.711Z,-0.80
2023-02-28T03:34:52.463Z,-0.80
2023-02-28T03:37:05.752Z,-0.80
2023-02-28T03:39:15.542Z,-0.80
2023-02-28T03:41:27.074Z,-0.80
2023-02-28T03:43:39.814Z,-0.70
2023-02-28T03:45:47.802Z,-0.80
2023-02-28T03:47:58.301Z,-0.80
2023-02-28T03:50:09.492Z,-0.80
2023-02-28T03:52:18.489Z,-0.80
2023-02-28T03:54:29.940Z,-0.90
2023-02-28T03:56:41.536Z,-0.90
2023-02-28T03:58:53.986Z,-0.90
2023-02-28T04:01:09.276Z,-0.90
2023-02-28T04:03:14.388Z,-0.80
2023-02-28T04:05:19.844Z,-0.80
2023-02-28T04:07:28.632Z,-0.80
2023-02-28T04:09:33.668Z,-0.80
2023-02-28T04:11:41.750Z,-0.80
2023-02-28T04:13:47.619Z,-0.80
2023-02-28T04:15:53.034Z,-0.80
2023-02-28T04:17:58.325Z,-0.80
2023-02-28T04:20:04.799Z,-0.80
2023-02-28T04:22:10.084Z,-0.70
2023-02-28T04:24:20.618Z,-0.80
2023-02-28T04:26:25.503Z,-0.80
2023-02-28T04:28:31.709Z,-0.70
2023-02-28T04:30:37.049Z,-0.70
2023-02-28T04:32:43.428Z,-0.70
2023-02-28T04:34:48.373Z,-0.70
2023-02-28T04:37:10.363Z,-0.80
2023-02-28T04:39:20.719Z,-0.80
2023-02-28T04:41:29.548Z,-0.80
2023-02-28T04:43:36.774Z,-0.80
2023-02-28T04:45:41.751Z,-0.90
2023-02-28T04:47:46.995Z,-1.00
2023-02-28T04:49:51.928Z,-1.00
2023-02-28T04:51:57.585Z,-1.00
2023-02-28T04:54:02.486Z,-1.00
2023-02-28T04:56:14.063Z,-1.00
2023-02-28T04:58:20.666Z,-1.00
2023-02-28T05:00:26.161Z,-1.00
2023-02-28T05:02:31.750Z,-1.00
2023-02-28T05:04:38.609Z,-1.00
2023-02-28T05:06:44.039Z,-1.00
2023-02-28T05:08:49.200Z,-0.90
2023-02-28T05:10:54.486Z,-0.90
2023-02-28T05:13:02.386Z,-0.90
2023-02-28T05:15:08.615Z,-0.90
2023-02-28T05:17:13.834Z,-0.90
2023-02-28T05:19:19.119Z,-0.90
2023-02-28T05:21:32.895Z,-0.90
2023-02-28T05:23:37.949Z,-0.90
2023-02-28T05:25:44.289Z,-0.90
2023-02-28T05:27:50.281Z,-0.90
2023-02-28T05:29:57.777Z,-0.90
2023-02-28T05:32:03.525Z,-0.90
2023-02-28T05:34:08.900Z,-0.80
2023-02-28T05:36:14.423Z,-0.80
2023-02-28T05:38:20.059Z,-0.90
2023-02-28T05:40:28.517Z,-0.90
2023-02-28T05:42:33.484Z,-0.90
2023-02-28T05:44:38.541Z,-0.90
2023-02-28T05:46:46.389Z,-0.90
2023-02-28T05:48:52.267Z,-0.90
2023-02-28T05:50:57.227Z,-1.00
2023-02-28T05:53:02.246Z,-1.00
2023-02-28T05:55:09.891Z,-1.00
2023-02-28T05:57:23.989Z,-1.00
2023-02-28T05:59:30.063Z,-1.00
2023-02-28T06:01:39.710Z,-1.00
2023-02-28T06:03:47.386Z,-1.00
2023-02-28T06:05:52.414Z,-1.00
2023-02-28T06:07:58.096Z,-1.00
2023-02-28T06:10:03.025Z,-1.00
2023-02-28T06:12:11.274Z,-1.00
2023-02-28T06:14:21.093Z,-1.00
2023-02-28T06:16:26.433Z,-1.00
2023-02-28T06:18:31.418Z,-1.00
2023-02-28T06:20:39.138Z,-1.10
2023-02-28T06:22:44.706Z,-1.00
2023-02-28T06:24:49.617Z,-1.00
2023-02-28T06:26:55.063Z,-1.00
2023-02-28T06:29:02.078Z,-1.00
2023-02-28T06:31:12.016Z,-1.00
2023-02-28T06:33:16.978Z,-1.10
2023-02-28T06:35:22.627Z,-1.10
2023-02-28T06:37:30.570Z,-1.10
2023-02-28T06:39:36.771Z,-1.10
2023-02-28T06:41:54.066Z,-1.10
2023-02-28T06:44:00.770Z,-1.10
2023-02-28T06:46:09.681Z,-1.20
2023-02-28T06:48:14.983Z,-1.20
2023-02-28T06:50:22.724Z,-1.20
2023-02-28T06:52:30.220Z,-1.20
2023-02-28T06:54:35.997Z,-1.20
2023-02-28T06:56:41.391Z,-1.20
2023-02-28T06:58:50.337Z,-1.10
2023-02-28T07:00:57.216Z,-1.20
2023-02-28T07:03:02.676Z,-1.20
2023-02-28T07:05:09.497Z,-1.20
2023-02-28T07:07:14.780Z,-1.10
2023-02-28T07:09:22.976Z,-1.10
2023-02-28T07:11:31.064Z,-1.10
2023-02-28T07:13:36.196Z,-1.10
2023-02-28T07:15:44.153Z,-1.10
2023-02-28T07:17:49.960Z,-1.00
2023-02-28T07:19:54.928Z,-1.00
2023-02-28T07:22:00.237Z,-1.00
2023-02-28T07:24:07.414Z,-1.00
2023-02-28T07:26:19.724Z,-0.90
2023-02-28T07:28:24.868Z,-0.90
2023-02-28T07:30:32.102Z,-0.90
2023-02-28T07:32:38.896Z,-0.90
2023-02-28T07:34:46.329Z,-0.90
2023-02-28T07:36:54.616Z,-0.90
2023-02-28T07:38:59.638Z,-0.80
2023-02-28T07:41:08.716Z,-0.80
2023-02-28T07:43:16.197Z,-0.80
2023-02-28T07:45:21.688Z,-0.80
2023-02-28T07:47:26.570Z,-0.70
2023-02-28T07:49:33.768Z,-0.70
2023-02-28T07:51:38.682Z,-0.70
2023-02-28T07:53:44.423Z,-0.70
2023-02-28T07:55:49.339Z,-0.60
2023-02-28T07:57:55.824Z,-0.60
2023-02-28T08:02:17.781Z,-0.50
2023-02-28T08:04:23.163Z,-0.50
2023-02-28T08:06:28.987Z,-0.50
2023-02-28T08:08:35.625Z,-0.50
2023-02-28T08:10:41.343Z,-0.40
2023-02-28T08:12:46.241Z,-0.40
2023-02-28T08:14:51.137Z,-0.30
2023-02-28T08:16:58.604Z,-0.30
2023-02-28T08:19:04.134Z,-0.30
2023-02-28T08:21:12.973Z,-0.20
2023-02-28T08:23:18.661Z,-0.10
2023-02-28T08:25:24.705Z,-0.10
2023-02-28T08:27:30.037Z,-0.10
2023-02-28T08:29:34.955Z,0.00
2023-02-28T08:31:40.074Z,0.10
2023-02-28T08:33:49.939Z,0.10
2023-02-28T08:35:58.097Z,0.10
2023-02-28T08:38:03.625Z,0.20
2023-02-28T08:40:11.210Z,0.10
2023-02-28T08:42:16.120Z,0.20
2023-02-28T08:44:21.086Z,0.30
2023-02-28T08:46:26.652Z,0.40
2023-02-28T08:48:34.593Z,0.40
2023-02-28T08:50:41.884Z,0.40
2023-02-28T08:52:47.572Z,0.50
2023-02-28T08:54:52.779Z,0.60
2023-02-28T08:56:57.687Z,0.50
2023-02-28T08:59:02.894Z,0.60
2023-02-28T09:01:15.913Z,0.60
2023-02-28T09:03:23.202Z,0.70
2023-02-28T09:05:30.256Z,0.80
2023-02-28T09:07:37.951Z,0.80
2023-02-28T09:09:55.163Z,0.80
2023-02-28T09:12:01.226Z,0.80
2023-02-28T09:14:06.933Z,0.80
2023-02-28T09:16:17.139Z,0.80
2023-02-28T09:18:23.342Z,0.90
2023-02-28T09:20:28.289Z,0.90
2023-02-28T09:22:33.612Z,1.00
2023-02-28T09:24:42.069Z,1.00
2023-02-28T09:27:01.517Z,1.10
2023-02-28T09:29:09.414Z,1.00
2023-02-28T09:31:21.771Z,1.10
2023-02-28T09:33:27.726Z,1.10
2023-02-28T09:35:32.741Z,1.10
2023-02-28T09:37:38.174Z,1.20
2023-02-28T09:39:45.907Z,1.10
2023-02-28T09:41:53.944Z,1.20
2023-02-28T09:44:04.073Z,1.20
2023-02-28T09:46:21.886Z,1.30
2023-02-28T09:48:33.350Z,1.30
2023-02-28T09:50:42.966Z,1.40
2023-02-28T09:52:52.265Z,1.40
2023-02-28T09:54:59.932Z,1.60
2023-02-28T09:57:17.388Z,1.70
2023-02-28T09:59:47.902Z,1.80
2023-02-28T10:02:01.045Z,2.10
2023-02-28T10:04:15.596Z,2.00
2023-02-28T10:06:23.872Z,1.90
2023-02-28T10:08:33.105Z,2.00
2023-02-28T10:10:46.221Z,2.10
2023-02-28T10:12:54.827Z,2.10
2023-02-28T10:15:03.446Z,2.10
2023-02-28T10:17:16.240Z,2.10
2023-02-28T10:19:33.668Z,2.00
2023-02-28T10:21:46.911Z,2.00
2023-02-28T10:23:53.393Z,2.10
2023-02-28T10:26:05.003Z,2.20
2023-02-28T10:28:15.794Z,2.20
2023-02-28T10:30:21.120Z,2.30
2023-02-28T10:32:29.870Z,2.50
2023-02-28T10:34:34.921Z,2.60
2023-02-28T10:36:39.797Z,2.60
2023-02-28T10:38:44.922Z,2.80
2023-02-28T10:40:49.856Z,3.00
2023-02-28T10:43:04.227Z,3.10
2023-02-28T10:45:15.418Z,3.10
2023-02-28T10:47:23.056Z,3.00
2023-02-28T10:49:30.348Z,2.80
2023-02-28T10:51:42.022Z,3.00
2023-02-28T10:54:01.129Z,3.00
2023-02-28T10:56:10.248Z,3.10
2023-02-28T10:58:28.540Z,3.00
2023-02-28T11:00:38.985Z,2.70
2023-02-28T11:02:45.626Z,2.70
2023-02-28T11:04:51.188Z,2.80
2023-02-28T11:07:02.553Z,2.90
2023-02-28T11:09:20.452Z,3.00
2023-02-28T11:11:30.601Z,3.10
2023-02-28T11:13:41.174Z,3.20
2023-02-28T11:15:53.816Z,3.30
2023-02-28T11:18:00.463Z,3.40
2023-02-28T11:20:08.983Z,3.50
2023-02-28T11:22:14.193Z,3.60
2023-02-28T11:24:29.425Z,3.50
2023-02-28T11:26:45.042Z,3.40
2023-02-28T11:29:14.600Z,3.70
2023-02-28T11:31:23.521Z,3.80
2023-02-28T11:33:32.719Z,3.70
2023-02-28T11:35:42.226Z,3.60
2023-02-28T11:37:48.013Z,3.50
2023-02-28T11:39:53.225Z,3.40
2023-02-28T11:42:29.378Z,3.30
2023-02-28T11:44:52.673Z,3.20
2023-02-28T11:47:03.308Z,3.30
2023-02-28T11:49:32.347Z,3.20
2023-02-28T11:51:48.183Z,3.30
2023-02-28T11:54:31.159Z,3.40
2023-02-28T11:56:42.058Z,3.40
2023-02-28T11:58:58.692Z,3.40
2023-02-28T12:01:38.285Z,3.40
2023-02-28T12:03:52.290Z,3.50
2023-02-28T12:06:12.433Z,3.50
2023-02-28T12:08:36.668Z,3.50
2023-02-28T12:10:55.778Z,3.50
2023-02-28T12:13:20.320Z,3.70
2023-02-28T12:15:53.300Z,3.60
2023-02-28T12:18:18.633Z,3.50
2023-02-28T12:20:37.340Z,3.70
2023-02-28T12:22:56.842Z,3.60
2023-02-28T12:25:44.570Z,3.80
2023-02-28T12:27:54.067Z,4.00
2023-02-28T12:30:05.539Z,4.10
2023-02-28T12:32:19.073Z,4.00
2023-02-28T12:34:32.323Z,3.70
2023-02-28T12:36:39.369Z,3.70
2023-02-28T12:38:48.126Z,4.00
2023-02-28T12:40:58.472Z,4.30
2023-02-28T12:43:10.423Z,4.30
2023-02-28T12:45:22.622Z,4.20
2023-02-28T12:47:27.853Z,4.50
2023-02-28T12:49:42.837Z,4.70
2023-02-28T12:51:49.553Z,4.90
2023-02-28T12:54:08.714Z,4.70
2023-02-28T12:56:21.501Z,4.70
2023-02-28T12:58:37.419Z,4.60
2023-02-28T13:01:02.603Z,4.80
2023-02-28T13:03:39.688Z,5.20
2023-02-28T13:06:04.819Z,4.90
2023-02-28T13:09:03.174Z,5.10
2023-02-28T13:11:21.035Z,5.80
2023-02-28T13:13:30.782Z,5.90
2023-02-28T13:15:41.542Z,6.00
2023-02-28T13:17:53.663Z,6.00
2023-02-28T13:20:03.050Z,6.20
2023-02-28T13:22:22.041Z,6.60
2023-02-28T13:24:50.776Z,6.20
2023-02-28T13:27:41.614Z,5.70
2023-02-28T13:29:49.329Z,5.70
2023-02-28T13:32:33.960Z,6.20
2023-02-28T13:34:40.566Z,6.60
2023-02-28T13:36:45.808Z,6.60
2023-02-28T13:38:56.449Z,6.70
2023-02-28T13:41:49.252Z,6.30
2023-02-28T13:44:07.313Z,6.00
2023-02-28T13:46:16.808Z,6.90
2023-02-28T13:48:33.841Z,6.40
2023-02-28T13:50:41.487Z,6.40
2023-02-28T13:52:57.816Z,5.80
2023-02-28T13:55:30.976Z,6.00
2023-02-28T13:57:51.577Z,6.50
2023-02-28T14:00:19.168Z,7.10
2023-02-28T14:02:52.511Z,7.50
2023-02-28T14:05:05.743Z,8.00
2023-02-28T14:07:13.420Z,8.30
2023-02-28T14:09:25.244Z,8.20
2023-02-28T14:11:37.388Z,8.30
2023-02-28T14:13:48.512Z,7.30
2023-02-28T14:16:00.972Z,6.60
2023-02-28T14:18:14.935Z,6.70
2023-02-28T14:20:20.888Z,7.50
2023-02-28T14:22:58.831Z,7.90
2023-02-28T14:25:20.072Z,8.30
2023-02-28T14:27:44.689Z,8.20
2023-02-28T14:30:22.407Z,8.40
2023-02-28T14:32:33.925Z,8.40
2023-02-28T14:34:50.618Z,8.50
2023-02-28T14:36:57.379Z,8.60
2023-02-28T14:39:08.741Z,8.50
2023-02-28T14:41:24.106Z,8.40
2023-02-28T14:43:33.177Z,8.40
2023-02-28T14:45:39.983Z,7.90
2023-02-28T14:47:47.016Z,7.90
2023-02-28T14:49:52.351Z,6.70
2023-02-28T14:52:12.538Z,7.00
2023-02-28T14:54:21.049Z,7.00
2023-02-28T14:56:32.227Z,6.20
2023-02-28T14:58:39.829Z,6.90
2023-02-28T15:00:54.765Z,6.70
2023-02-28T15:03:04.646Z,7.20
2023-02-28T15:05:29.636Z,7.70
2023-02-28T15:07:34.610Z,7.80
2023-02-28T15:09:39.560Z,7.70
2023-02-28T15:11:45.557Z,7.30
2023-02-28T15:13:56.523Z,7.10
2023-02-28T15:16:06.343Z,6.90
2023-02-28T15:18:15.532Z,6.80
2023-02-28T15:20:22.207Z,7.10
2023-02-28T15:22:35.316Z,7.40
2023-02-28T15:24:45.662Z,7.50
2023-02-28T15:26:57.151Z,7.40
2023-02-28T15:29:14.853Z,7.00
2023-02-28T15:31:35.607Z,6.40
2023-02-28T15:33:58.137Z,6.20
2023-02-28T15:36:18.418Z,6.40
2023-02-28T15:38:29.310Z,6.70
2023-02-28T15:40:40.187Z,6.90
2023-02-28T15:42:47.248Z,6.40
2023-02-28T15:44:54.725Z,5.90
2023-02-28T15:47:05.471Z,6.40
2023-02-28T15:49:23.530Z,6.60
2023-02-28T15:51:40.207Z,6.90
2023-02-28T15:53:51.694Z,6.80
2023-02-28T15:56:05.644Z,6.60
2023-02-28T15:58:14.752Z,6.30
2023-02-28T16:00:26.277Z,6.10
2023-02-28T16:02:36.770Z,6.30
2023-02-28T16:04:59.284Z,6.00
2023-02-28T16:07:09.873Z,6.10
2023-02-28T16:09:17.972Z,6.20
2023-02-28T16:11:25.389Z,6.00
2023-02-28T16:13:30.829Z,5.60
2023-02-28T16:15:45.448Z,5.60
2023-02-28T16:17:50.912Z,5.80
2023-02-28T16:19:57.236Z,5.70
2023-02-28T16:22:02.735Z,5.80
2023-02-28T16:24:08.211Z,5.80
2023-02-28T16:26:25.049Z,5.80
2023-02-28T16:28:35.443Z,5.50
2023-02-28T16:30:43.059Z,5.30
2023-02-28T16:32:48.203Z,5.30
2023-02-28T16:34:53.856Z,5.20
2023-02-28T16:36:59.895Z,5.10
2023-02-28T16:39:06.048Z,5.10
2023-02-28T16:41:19.782Z,4.90
2023-02-28T16:43:30.325Z,4.80
2023-02-28T16:45:35.864Z,4.90
2023-02-28T16:47:43.321Z,4.70
2023-02-28T16:49:49.295Z,4.70
2023-02-28T16:51:54.193Z,4.40
2023-02-28T16:53:59.664Z,4.40
2023-02-28T16:56:08.145Z,4.30
2023-02-28T16:58:20.247Z,4.10
2023-02-28T17:00:27.629Z,4.10
2023-02-28T17:02:32.750Z,4.00
2023-02-28T17:04:40.929Z,4.00
2023-02-28T17:06:46.181Z,4.00
2023-02-28T17:08:51.271Z,4.00
2023-02-28T17:10:57.121Z,3.80
2023-02-28T17:13:14.134Z,3.80
2023-02-28T17:15:22.454Z,3.80
2023-02-28T17:17:35.131Z,3.80
2023-02-28T17:19:44.752Z,3.70
2023-02-28T17:21:50.100Z,3.60
2023-02-28T17:23:55.419Z,3.50
2023-02-28T17:26:00.746Z,3.30
2023-02-28T17:28:06.103Z,3.30
2023-02-28T17:30:20.399Z,3.20
2023-02-28T17:32:25.359Z,3.00
2023-02-28T17:34:30.291Z,3.10
2023-02-28T17:36:38.944Z,3.00
2023-02-28T17:38:44.035Z,2.90
2023-02-28T17:40:49.724Z,2.90
2023-02-28T17:42:56.240Z,2.80
2023-02-28T17:45:01.517Z,2.80
2023-02-28T17:47:08.462Z,2.70
2023-02-28T17:49:14.294Z,2.60
2023-02-28T17:51:22.392Z,2.60
2023-02-28T17:53:29.928Z,2.60
2023-02-28T17:55:35.788Z,2.60
2023-02-28T17:57:42.678Z,2.60
2023-02-28T17:59:48.606Z,2.40
2023-02-28T18:01:54.155Z,2.50
2023-02-28T18:04:00.185Z,2.50
2023-02-28T18:06:06.633Z,2.50
2023-02-28T18:08:19.576Z,2.40
2023-02-28T18:10:28.412Z,2.20
2023-02-28T18:12:33.514Z,2.30
2023-02-28T18:14:38.406Z,2.30
2023-02-28T18:16:43.682Z,2.20
2023-02-28T18:18:49.117Z,2.20
2023-02-28T18:20:54.756Z,2.20
2023-02-28T18:22:59.669Z,2.10
2023-02-28T18:25:04.581Z,2.00
2023-02-28T18:27:14.946Z,2.00
2023-02-28T18:29:24.600Z,2.00
2023-02-28T18:31:29.550Z,1.90
2023-02-28T18:33:34.748Z,1.80
2023-02-28T18:35:39.970Z,1.90
2023-02-28T18:37:44.898Z,1.90
2023-02-28T18:39:50.172Z,1.90
2023-02-28T18:41:55.226Z,1.80
2023-02-28T18:44:13.775Z,1.80
2023-02-28T18:46:24.006Z,1.60
2023-02-28T18:48:28.937Z,1.60
2023-02-28T18:50:34.204Z,1.50
2023-02-28T18:52:39.147Z,1.50
2023-02-28T18:54:46.153Z,1.50
2023-02-28T18:56:51.061Z,1.50
2023-02-28T18:58:56.463Z,1.60
2023-02-28T19:01:05.167Z,1.50
2023-02-28T19:03:10.946Z,1.40
2023-02-28T19:05:16.100Z,1.30
2023-02-28T19:07:21.035Z,1.30
2023-02-28T19:09:26.074Z,1.30
2023-02-28T19:11:31.846Z,1.30
2023-02-28T19:13:37.467Z,1.30
2023-02-28T19:15:42.792Z,1.20
2023-02-28T19:17:50.331Z,1.20
2023-02-28T19:19:55.316Z,1.20
2023-02-28T19:22:00.278Z,1.20
2023-02-28T19:24:06.613Z,1.10
2023-02-28T19:26:14.080Z,1.10
2023-02-28T19:28:19.052Z,1.00
2023-02-28T19:30:24.985Z,0.90
2023-02-28T19:32:30.757Z,0.90
2023-02-28T19:34:38.500Z,0.90
2023-02-28T19:36:43.677Z,0.80
2023-02-28T19:38:48.759Z,0.80
2023-02-28T19:40:53.658Z,0.80
2023-02-28T19:42:59.352Z,0.80
2023-02-28T19:45:06.954Z,0.90
2023-02-28T19:47:12.624Z,0.80
2023-02-28T19:49:18.763Z,0.80
2023-02-28T19:51:27.697Z,0.90
2023-02-28T19:53:34.366Z,0.90
2023-02-28T19:55:40.912Z,0.80
2023-02-28T19:57:46.064Z,0.80
2023-02-28T19:59:52.084Z,0.70
2023-02-28T20:01:57.650Z,0.80
2023-02-28T20:04:04.641Z,0.70
2023-02-28T20:06:13.798Z,0.60
2023-02-28T20:08:21.738Z,0.70
2023-02-28T20:10:26.669Z,0.70
2023-02-28T20:12:32.399Z,0.70
2023-02-28T20:14:37.331Z,0.70
2023-02-28T20:16:43.637Z,0.70
2023-02-28T20:18:53.739Z,0.70
2023-02-28T20:20:58.785Z,0.70
2023-02-28T20:23:04.214Z,0.70
2023-02-28T20:25:13.751Z,0.60
2023-02-28T20:27:18.957Z,0.60
2023-02-28T20:29:24.129Z,0.60
2023-02-28T20:31:31.205Z,0.60
2023-02-28T20:33:36.513Z,0.50
2023-02-28T20:35:41.508Z,0.40
2023-02-28T20:37:47.073Z,0.60
2023-02-28T20:39:53.262Z,0.50
2023-02-28T20:42:00.824Z,0.50
2023-02-28T20:44:05.730Z,0.50
2023-02-28T20:46:10.870Z,0.50
2023-02-28T20:48:15.780Z,0.50
2023-02-28T20:50:22.175Z,0.40
2023-02-28T20:52:27.289Z,0.30
2023-02-28T20:56:38.556Z,0.30
2023-02-28T20:58:49.109Z,0.30
2023-02-28T21:00:54.488Z,0.30
2023-02-28T21:02:59.386Z,0.40
2023-02-28T21:05:04.555Z,0.30
2023-02-28T21:07:10.237Z,0.30
2023-02-28T21:09:17.999Z,0.30
2023-02-28T21:11:26.930Z,0.30
2023-02-28T21:13:32.096Z,0.30
2023-02-28T21:15:42.684Z,0.30
2023-02-28T21:17:48.693Z,0.30
2023-02-28T21:19:53.602Z,0.30
2023-02-28T21:21:58.599Z,0.20
2023-02-28T21:24:03.881Z,0.10
2023-02-28T21:26:11.377Z,0.20
2023-02-28T21:28:16.436Z,0.20
2023-02-28T21:30:21.720Z,0.20
2023-02-28T21:32:29.762Z,0.20
2023-02-28T21:34:34.980Z,0.10
2023-02-28T21:36:45.259Z,0.20
2023-02-28T21:38:52.882Z,0.10
2023-02-28T21:40:57.970Z,0.20
2023-02-28T21:43:03.353Z,0.20
2023-02-28T21:45:10.190Z,0.20
2023-02-28T21:47:15.521Z,0.20
2023-02-28T21:49:23.422Z,0.20
2023-02-28T21:51:31.191Z,0.10
2023-02-28T21:53:40.432Z,0.10
2023-02-28T21:55:45.394Z,0.00
2023-02-28T21:57:50.317Z,0.00
2023-02-28T21:59:55.970Z,0.00
2023-02-28T22:02:01.119Z,0.00
2023-02-28T22:04:09.079Z,-0.10
2023-02-28T22:06:19.999Z,-0.20
2023-02-28T22:08:25.468Z,-0.20
2023-02-28T22:10:30.982Z,-0.20
2023-02-28T22:12:36.399Z,-0.20
2023-02-28T22:14:45.320Z,-0.20
2023-02-28T22:16:53.896Z,-0.20
2023-02-28T22:19:00.729Z,-0.30
2023-02-28T22:21:06.490Z,-0.30
2023-02-28T22:23:14.690Z,-0.20
2023-02-28T22:25:20.296Z,-0.20
2023-02-28T22:27:25.243Z,-0.30
2023-02-28T22:29:30.248Z,-0.30
2023-02-28T22:31:38.734Z,-0.20
2023-02-28T22:33:44.233Z,-0.20
2023-02-28T22:35:49.803Z,-0.20
2023-02-28T22:37:54.791Z,-0.20
2023-02-28T22:40:02.632Z,-0.20
2023-02-28T22:42:07.720Z,-0.40
2023-02-28T22:44:14.374Z,-0.50
2023-02-28T22:46:20.302Z,-0.50
2023-02-28T22:48:25.261Z,-0.40
2023-02-28T22:50:30.598Z,-0.40
2023-02-28T22:52:35.896Z,-0.30
2023-02-28T22:54:40.779Z,-0.30
2023-02-28T22:56:48.759Z,-0.40
2023-02-28T22:58:55.376Z,-0.40
2023-02-28T23:01:08.234Z,-0.40
2023-02-28T23:03:13.138Z,-0.40
2023-02-28T23:05:18.699Z,-0.40
2023-02-28T23:07:24.328Z,-0.40
2023-02-28T23:09:29.976Z,-0.50
2023-02-28T23:11:38.098Z,-0.40
2023-02-28T23:13:46.598Z,-0.50
2023-02-28T23:15:51.828Z,-0.50
2023-02-28T23:17:57.109Z,-0.50
2023-02-28T23:20:02.055Z,-0.60
2023-02-28T23:22:07.834Z,-0.60
2023-02-28T23:24:16.236Z,-0.50
2023-02-28T23:26:21.291Z,-0.60
2023-02-28T23:28:27.867Z,-0.60
2023-02-28T23:30:36.785Z,-0.50
2023-02-28T23:32:44.288Z,-0.50
2023-02-28T23:34:52.092Z,-0.50
2023-02-28T23:36:58.248Z,-0.50
2023-02-28T23:39:03.506Z,-0.50
2023-02-28T23:41:13.780Z,-0.50
2023-02-28T23:43:19.632Z,-0.60
2023-02-28T23:45:24.956Z,-0.70
2023-02-28T23:47:32.680Z,-0.70
2023-02-28T23:49:38.996Z,-0.70
2023-02-28T23:51:44.173Z,-0.70
2023-02-28T23:53:52.182Z,-0.70
2023-02-28T23:55:57.494Z,-0.80
2023-02-28T23:58:02.413Z,-0.80
